sensor_id;sensor_type;location;lat;lon;timestamp;pressure;altitude;pressure_sealevel;temperature;humidity
54248;BME280;40161;39.768;2.722;2023-02-04T00:01:55;102728.56;;;4.33;89.93
54248;BME280;40161;39.768;2.722;2023-02-04T00:04:20;102694.91;;;4.18;89.70
54248;BME280;40161;39.768;2.722;2023-02-04T00:06:46;102708.50;;;3.98;89.60
54248;BME280;40161;39.768;2.722;2023-02-04T00:09:12;102719.09;;;4.20;90.97
54248;BME280;40161;39.768;2.722;2023-02-04T00:11:37;102712.03;;;4.24;90.42
54248;BME280;40161;39.768;2.722;2023-02-04T00:14:03;102712.31;;;4.17;90.14
54248;BME280;40161;39.768;2.722;2023-02-04T00:16:28;102698.16;;;4.15;90.71
54248;BME280;40161;39.768;2.722;2023-02-04T00:18:54;102684.59;;;4.00;90.62
54248;BME280;40161;39.768;2.722;2023-02-04T00:21:19;102655.00;;;3.78;89.74
54248;BME280;40161;39.768;2.722;2023-02-04T00:23:45;102689.75;;;4.12;90.40
54248;BME280;40161;39.768;2.722;2023-02-04T00:26:11;102668.28;;;4.10;89.29
54248;BME280;40161;39.768;2.722;2023-02-04T00:28:36;102681.31;;;4.08;89.58
54248;BME280;40161;39.768;2.722;2023-02-04T00:31:02;102694.91;;;4.18;89.81
54248;BME280;40161;39.768;2.722;2023-02-04T00:33:27;102681.59;;;4.17;90.55
54248;BME280;40161;39.768;2.722;2023-02-04T00:35:53;102666.63;;;4.24;89.13
54248;BME280;40161;39.768;2.722;2023-02-04T00:38:19;102665.59;;;3.90;89.73
54248;BME280;40161;39.768;2.722;2023-02-04T00:40:44;102689.75;;;3.91;89.40
54248;BME280;40161;39.768;2.722;2023-02-04T00:43:10;102676.47;;;3.74;90.57
54248;BME280;40161;39.768;2.722;2023-02-04T00:45:35;102688.13;;;3.75;92.09
54248;BME280;40161;39.768;2.722;2023-02-04T00:48:02;102684.34;;;3.81;91.54
54248;BME280;40161;39.768;2.722;2023-02-04T00:50:27;102675.94;;;3.93;91.89
54248;BME280;40161;39.768;2.722;2023-02-04T00:52:53;102658.22;;;4.16;89.99
54248;BME280;40161;39.768;2.722;2023-02-04T00:55:19;102672.66;;;3.70;88.02
54248;BME280;40161;39.768;2.722;2023-02-04T00:57:44;102659.34;;;3.84;91.17
54248;BME280;40161;39.768;2.722;2023-02-04T01:00:13;102676.44;;;4.20;89.96
54248;BME280;40161;39.768;2.722;2023-02-04T01:02:39;102671.56;;;3.97;88.86
54248;BME280;40161;39.768;2.722;2023-02-04T01:05:06;102649.84;;;3.61;88.76
54248;BME280;40161;39.768;2.722;2023-02-04T01:07:33;102673.22;;;3.62;91.34
54248;BME280;40161;39.768;2.722;2023-02-04T01:09:59;102673.22;;;3.72;91.59
54248;BME280;40161;39.768;2.722;2023-02-04T01:12:25;102666.72;;;3.68;91.06
54248;BME280;40161;39.768;2.722;2023-02-04T01:14:53;102681.38;;;3.83;91.20
54248;BME280;40161;39.768;2.722;2023-02-04T01:17:20;102636.84;;;3.58;90.88
54248;BME280;40161;39.768;2.722;2023-02-04T01:19:47;102675.66;;;3.84;90.73
54248;BME280;40161;39.768;2.722;2023-02-04T01:22:13;102678.84;;;4.22;91.13
54248;BME280;40161;39.768;2.722;2023-02-04T01:24:39;102672.59;;;4.26;90.10
54248;BME280;40161;39.768;2.722;2023-02-04T01:27:04;102680.44;;;4.33;89.10
54248;BME280;40161;39.768;2.722;2023-02-04T01:29:30;102666.59;;;4.29;88.83
54248;BME280;40161;39.768;2.722;2023-02-04T01:31:55;102640.84;;;4.17;88.05
54248;BME280;40161;39.768;2.722;2023-02-04T01:34:21;102661.81;;;3.86;86.40
54248;BME280;40161;39.768;2.722;2023-02-04T01:36:46;102671.31;;;3.52;89.01
54248;BME280;40161;39.768;2.722;2023-02-04T01:39:12;102668.84;;;3.51;91.91
54248;BME280;40161;39.768;2.722;2023-02-04T01:41:38;102669.97;;;3.45;92.19
54248;BME280;40161;39.768;2.722;2023-02-04T01:44:04;102678.88;;;3.40;92.57
54248;BME280;40161;39.768;2.722;2023-02-04T01:46:30;102659.91;;;3.35;92.40
54248;BME280;40161;39.768;2.722;2023-02-04T01:48:58;102662.06;;;3.43;92.54
54248;BME280;40161;39.768;2.722;2023-02-04T01:51:26;102666.69;;;3.84;92.89
54248;BME280;40161;39.768;2.722;2023-02-04T01:53:54;102675.63;;;4.04;91.84
54248;BME280;40161;39.768;2.722;2023-02-04T01:56:22;102670.19;;;4.04;91.13
54248;BME280;40161;39.768;2.722;2023-02-04T01:58:50;102673.41;;;4.27;90.26
54248;BME280;40161;39.768;2.722;2023-02-04T02:01:40;102683.81;;;3.79;88.06
54248;BME280;40161;39.768;2.722;2023-02-04T02:04:09;102674.59;;;3.54;90.84
54248;BME280;40161;39.768;2.722;2023-02-04T02:06:37;102673.72;;;3.23;91.31
54248;BME280;40161;39.768;2.722;2023-02-04T02:09:08;102672.91;;;3.43;93.26
54248;BME280;40161;39.768;2.722;2023-02-04T02:11:33;102667.50;;;3.74;92.93
54248;BME280;40161;39.768;2.722;2023-02-04T02:13:59;102652.81;;;3.95;91.17
54248;BME280;40161;39.768;2.722;2023-02-04T02:16:26;102678.66;;;3.72;88.52
54248;BME280;40161;39.768;2.722;2023-02-04T02:18:51;102653.91;;;3.28;90.50
54248;BME280;40161;39.768;2.722;2023-02-04T02:21:44;102664.53;;;3.45;91.86
54248;BME280;40161;39.768;2.722;2023-02-04T02:24:31;102664.53;;;3.60;91.46
54248;BME280;40161;39.768;2.722;2023-02-04T02:27:05;102656.94;;;3.62;90.43
54248;BME280;40161;39.768;2.722;2023-02-04T02:29:34;102666.16;;;3.56;89.37
54248;BME280;40161;39.768;2.722;2023-02-04T02:32:01;102672.09;;;3.32;90.40
54248;BME280;40161;39.768;2.722;2023-02-04T02:34:29;102641.41;;;3.06;91.83
54248;BME280;40161;39.768;2.722;2023-02-04T02:36:57;102656.38;;;3.24;92.66
54248;BME280;40161;39.768;2.722;2023-02-04T02:39:23;102663.44;;;3.56;92.97
54248;BME280;40161;39.768;2.722;2023-02-04T02:41:50;102672.63;;;3.24;92.12
54248;BME280;40161;39.768;2.722;2023-02-04T02:44:16;102636.00;;;3.17;92.26
54248;BME280;40161;39.768;2.722;2023-02-04T02:46:43;102658.81;;;3.46;92.69
54248;BME280;40161;39.768;2.722;2023-02-04T02:49:13;102607.50;;;3.14;91.51
54248;BME280;40161;39.768;2.722;2023-02-04T02:51:41;102628.41;;;3.34;91.41
54248;BME280;40161;39.768;2.722;2023-02-04T02:54:22;102624.03;;;3.13;91.03
54248;BME280;40161;39.768;2.722;2023-02-04T02:56:48;102649.56;;;3.57;91.87
54248;BME280;40161;39.768;2.722;2023-02-04T02:59:15;102650.13;;;3.90;90.00
54248;BME280;40161;39.768;2.722;2023-02-04T03:01:42;102645.25;;;3.67;87.63
54248;BME280;40161;39.768;2.722;2023-02-04T03:04:11;102644.41;;;3.25;89.48
54248;BME280;40161;39.768;2.722;2023-02-04T03:06:37;102638.41;;;3.13;90.11
54248;BME280;40161;39.768;2.722;2023-02-04T03:09:04;102608.28;;;2.89;93.00
54248;BME280;40161;39.768;2.722;2023-02-04T03:11:32;102629.50;;;3.38;93.47
54248;BME280;40161;39.768;2.722;2023-02-04T03:14:04;102602.88;;;3.09;91.66
54248;BME280;40161;39.768;2.722;2023-02-04T03:16:32;102624.06;;;3.28;92.34
54248;BME280;40161;39.768;2.722;2023-02-04T03:18:59;102619.16;;;3.20;91.45
54248;BME280;40161;39.768;2.722;2023-02-04T03:21:28;102627.84;;;3.06;92.97
54248;BME280;40161;39.768;2.722;2023-02-04T03:23:54;102624.00;;;3.02;94.02
54248;BME280;40161;39.768;2.722;2023-02-04T03:26:24;102624.59;;;3.25;94.02
54248;BME280;40161;39.768;2.722;2023-02-04T03:28:53;102591.75;;;3.01;93.33
54248;BME280;40161;39.768;2.722;2023-02-04T03:31:19;102616.16;;;3.16;93.36
54248;BME280;40161;39.768;2.722;2023-02-04T03:33:46;102608.31;;;3.15;93.90
54248;BME280;40161;39.768;2.722;2023-02-04T03:36:11;102603.13;;;3.13;93.34
54248;BME280;40161;39.768;2.722;2023-02-04T03:38:37;102611.31;;;3.49;93.46
54248;BME280;40161;39.768;2.722;2023-02-04T03:41:04;102613.47;;;3.57;92.83
54248;BME280;40161;39.768;2.722;2023-02-04T03:43:31;102621.34;;;3.69;92.07
54248;BME280;40161;39.768;2.722;2023-02-04T03:45:59;102624.59;;;3.76;91.24
54248;BME280;40161;39.768;2.722;2023-02-04T03:48:26;102606.66;;;3.80;90.15
54248;BME280;40161;39.768;2.722;2023-02-04T03:50:54;102605.81;;;3.95;90.63
54248;BME280;40161;39.768;2.722;2023-02-04T03:53:19;102599.09;;;3.72;87.94
54248;BME280;40161;39.768;2.722;2023-02-04T03:55:46;102589.59;;;3.28;90.00
54248;BME280;40161;39.768;2.722;2023-02-04T03:58:12;102608.06;;;3.31;93.05
54248;BME280;40161;39.768;2.722;2023-02-04T04:00:37;102599.09;;;3.41;91.86
54248;BME280;40161;39.768;2.722;2023-02-04T04:03:04;102594.22;;;3.28;91.92
54248;BME280;40161;39.768;2.722;2023-02-04T04:05:30;102582.00;;;3.15;92.54
54248;BME280;40161;39.768;2.722;2023-02-04T04:07:55;102578.75;;;3.03;93.22
54248;BME280;40161;39.768;2.722;2023-02-04T04:10:21;102554.03;;;2.89;93.81
54248;BME280;40161;39.768;2.722;2023-02-04T04:12:48;102576.31;;;3.17;93.88
54248;BME280;40161;39.768;2.722;2023-02-04T04:15:13;102577.94;;;3.48;95.14
54248;BME280;40161;39.768;2.722;2023-02-04T04:17:39;102590.09;;;3.71;93.77
54248;BME280;40161;39.768;2.722;2023-02-04T04:20:05;102558.09;;;3.68;92.17
54248;BME280;40161;39.768;2.722;2023-02-04T04:22:31;102580.59;;;3.74;90.18
54248;BME280;40161;39.768;2.722;2023-02-04T04:24:58;102584.44;;;3.47;89.64
54248;BME280;40161;39.768;2.722;2023-02-04T04:27:24;102575.50;;;3.42;90.38
54248;BME280;40161;39.768;2.722;2023-02-04T04:29:50;102580.38;;;3.35;92.01
54248;BME280;40161;39.768;2.722;2023-02-04T04:32:16;102579.00;;;3.32;92.29
54248;BME280;40161;39.768;2.722;2023-02-04T04:34:42;102548.63;;;3.25;92.97
54248;BME280;40161;39.768;2.722;2023-02-04T04:37:07;102564.88;;;3.20;91.24
54248;BME280;40161;39.768;2.722;2023-02-04T04:39:35;102559.19;;;3.16;92.22
54248;BME280;40161;39.768;2.722;2023-02-04T04:42:02;102559.75;;;3.18;91.67
54248;BME280;40161;39.768;2.722;2023-02-04T04:44:27;102567.88;;;3.33;91.66
54248;BME280;40161;39.768;2.722;2023-02-04T04:46:53;102571.16;;;3.36;91.04
54248;BME280;40161;39.768;2.722;2023-02-04T04:49:22;102568.69;;;3.39;91.14
54248;BME280;40161;39.768;2.722;2023-02-04T04:51:49;102564.63;;;3.16;91.30
54248;BME280;40161;39.768;2.722;2023-02-04T04:54:22;102565.72;;;3.46;91.20
54248;BME280;40161;39.768;2.722;2023-02-04T04:56:49;102558.38;;;3.56;90.44
54248;BME280;40161;39.768;2.722;2023-02-04T04:59:16;102549.44;;;3.36;89.54
54248;BME280;40161;39.768;2.722;2023-02-04T05:01:43;102544.81;;;3.26;90.95
54248;BME280;40161;39.768;2.722;2023-02-04T05:04:10;102549.44;;;3.30;91.45
54248;BME280;40161;39.768;2.722;2023-02-04T05:06:36;102551.91;;;3.17;91.86
54248;BME280;40161;39.768;2.722;2023-02-04T05:09:02;102549.69;;;3.49;91.75
54248;BME280;40161;39.768;2.722;2023-02-04T05:11:28;102551.56;;;3.54;89.17
54248;BME280;40161;39.768;2.722;2023-02-04T05:13:54;102555.16;;;3.34;91.12
54248;BME280;40161;39.768;2.722;2023-02-04T05:16:21;102545.63;;;3.42;91.42
54248;BME280;40161;39.768;2.722;2023-02-04T05:18:48;102557.84;;;3.34;90.40
54248;BME280;40161;39.768;2.722;2023-02-04T05:21:13;102550.78;;;3.18;91.01
54248;BME280;40161;39.768;2.722;2023-02-04T05:23:40;102539.66;;;2.94;89.88
54248;BME280;40161;39.768;2.722;2023-02-04T05:26:05;102542.63;;;2.92;91.38
54248;BME280;40161;39.768;2.722;2023-02-04T05:28:31;102551.59;;;2.82;93.35
54248;BME280;40161;39.768;2.722;2023-02-04T05:30:56;102544.00;;;3.00;93.84
54248;BME280;40161;39.768;2.722;2023-02-04T05:33:22;102551.59;;;3.33;94.37
54248;BME280;40161;39.768;2.722;2023-02-04T05:35:49;102543.44;;;3.44;92.13
54248;BME280;40161;39.768;2.722;2023-02-04T05:38:14;102551.34;;;3.04;88.57
54248;BME280;40161;39.768;2.722;2023-02-04T05:40:40;102501.38;;;2.49;90.27
54248;BME280;40161;39.768;2.722;2023-02-04T05:43:05;102518.47;;;2.55;92.17
54248;BME280;40161;39.768;2.722;2023-02-04T05:45:32;102542.34;;;2.73;93.94
54248;BME280;40161;39.768;2.722;2023-02-04T05:48:00;102520.94;;;2.61;93.52
54248;BME280;40161;39.768;2.722;2023-02-04T05:50:26;102547.78;;;2.83;94.70
54248;BME280;40161;39.768;2.722;2023-02-04T05:52:53;102491.09;;;2.77;94.93
54248;BME280;40161;39.768;2.722;2023-02-04T05:55:20;102545.09;;;3.19;93.43
54248;BME280;40161;39.768;2.722;2023-02-04T05:57:46;102546.72;;;3.25;92.62
54248;BME280;40161;39.768;2.722;2023-02-04T06:00:14;102554.88;;;3.20;91.83
54248;BME280;40161;39.768;2.722;2023-02-04T06:02:40;102550.25;;;3.31;92.22
54248;BME280;40161;39.768;2.722;2023-02-04T06:05:07;102492.47;;;2.79;90.85
54248;BME280;40161;39.768;2.722;2023-02-04T06:07:33;102550.78;;;3.02;90.36
54248;BME280;40161;39.768;2.722;2023-02-04T06:09:58;102545.09;;;2.94;91.92
54248;BME280;40161;39.768;2.722;2023-02-04T06:12:24;102541.03;;;3.01;91.71
54248;BME280;40161;39.768;2.722;2023-02-04T06:14:50;102517.94;;;2.99;91.50
54248;BME280;40161;39.768;2.722;2023-02-04T06:17:16;102544.28;;;3.08;90.09
54248;BME280;40161;39.768;2.722;2023-02-04T06:19:42;102523.91;;;2.80;92.60
54248;BME280;40161;39.768;2.722;2023-02-04T06:22:07;102527.72;;;2.90;93.11
54248;BME280;40161;39.768;2.722;2023-02-04T06:24:33;102533.41;;;2.88;92.85
54248;BME280;40161;39.768;2.722;2023-02-04T06:26:58;102539.13;;;2.87;92.66
54248;BME280;40161;39.768;2.722;2023-02-04T06:29:24;102542.91;;;3.06;93.42
54248;BME280;40161;39.768;2.722;2023-02-04T06:31:49;102531.78;;;2.92;92.31
54248;BME280;40161;39.768;2.722;2023-02-04T06:34:15;102532.63;;;2.82;92.34
54248;BME280;40161;39.768;2.722;2023-02-04T06:36:41;102540.22;;;3.01;93.87
54248;BME280;40161;39.768;2.722;2023-02-04T06:39:08;102508.47;;;3.01;93.42
54248;BME280;40161;39.768;2.722;2023-02-04T06:41:35;102540.22;;;3.01;91.09
54248;BME280;40161;39.768;2.722;2023-02-04T06:44:01;102539.91;;;2.77;91.71
54248;BME280;40161;39.768;2.722;2023-02-04T06:46:26;102546.16;;;2.88;94.26
54248;BME280;40161;39.768;2.722;2023-02-04T06:48:52;102546.72;;;3.00;92.97
54248;BME280;40161;39.768;2.722;2023-02-04T06:51:19;102549.72;;;3.29;91.98
54248;BME280;40161;39.768;2.722;2023-02-04T06:53:53;102527.47;;;2.96;90.41
54248;BME280;40161;39.768;2.722;2023-02-04T06:56:23;102515.50;;;2.82;92.52
54248;BME280;40161;39.768;2.722;2023-02-04T06:58:48;102532.06;;;3.16;92.62
54248;BME280;40161;39.768;2.722;2023-02-04T07:01:16;102545.34;;;3.23;91.51
54248;BME280;40161;39.768;2.722;2023-02-04T07:03:43;102496.53;;;3.13;91.92
54248;BME280;40161;39.768;2.722;2023-02-04T07:06:11;102529.09;;;3.38;89.10
54248;BME280;40161;39.768;2.722;2023-02-04T07:08:43;102531.25;;;3.16;90.77
54248;BME280;40161;39.768;2.722;2023-02-04T07:11:10;102542.38;;;3.29;91.95
54248;BME280;40161;39.768;2.722;2023-02-04T07:13:38;102520.94;;;3.13;90.07
54248;BME280;40161;39.768;2.722;2023-02-04T07:16:04;102531.53;;;3.24;90.86
54248;BME280;40161;39.768;2.722;2023-02-04T07:18:32;102527.19;;;3.08;92.30
54248;BME280;40161;39.768;2.722;2023-02-04T07:20:59;102533.69;;;2.87;91.80
54248;BME280;40161;39.768;2.722;2023-02-04T07:23:25;102517.91;;;2.58;93.17
54248;BME280;40161;39.768;2.722;2023-02-04T07:25:52;102542.03;;;2.65;94.15
54248;BME280;40161;39.768;2.722;2023-02-04T07:28:19;102542.63;;;2.77;95.11
54248;BME280;40161;39.768;2.722;2023-02-04T07:30:45;102533.66;;;2.81;94.92
54248;BME280;40161;39.768;2.722;2023-02-04T07:33:12;102551.06;;;3.26;93.60
54248;BME280;40161;39.768;2.722;2023-02-04T07:35:38;102543.75;;;3.27;92.01
54248;BME280;40161;39.768;2.722;2023-02-04T07:38:05;102514.16;;;3.05;92.41
54248;BME280;40161;39.768;2.722;2023-02-04T07:40:33;102545.34;;;3.43;93.74
54248;BME280;40161;39.768;2.722;2023-02-04T07:43:00;102550.50;;;3.55;93.21
54248;BME280;40161;39.768;2.722;2023-02-04T07:45:25;102548.34;;;3.26;91.98
54248;BME280;40161;39.768;2.722;2023-02-04T07:47:51;102548.59;;;3.09;92.95
54248;BME280;40161;39.768;2.722;2023-02-04T07:50:18;102536.16;;;3.03;94.43
54248;BME280;40161;39.768;2.722;2023-02-04T07:52:43;102545.38;;;3.18;94.93
54248;BME280;40161;39.768;2.722;2023-02-04T07:55:09;102529.34;;;3.06;94.63
54248;BME280;40161;39.768;2.722;2023-02-04T07:57:35;102548.88;;;3.13;93.73
54248;BME280;40161;39.768;2.722;2023-02-04T08:00:01;102548.88;;;3.23;95.47
54248;BME280;40161;39.768;2.722;2023-02-04T08:02:26;102526.63;;;3.26;93.89
54248;BME280;40161;39.768;2.722;2023-02-04T08:04:52;102514.16;;;3.05;93.78
54248;BME280;40161;39.768;2.722;2023-02-04T08:07:18;102551.91;;;3.17;93.88
54248;BME280;40161;39.768;2.722;2023-02-04T08:09:44;102553.50;;;3.38;95.21
54248;BME280;40161;39.768;2.722;2023-02-04T08:12:11;102549.97;;;3.58;95.31
54248;BME280;40161;39.768;2.722;2023-02-04T08:14:36;102550.50;;;3.65;94.51
54248;BME280;40161;39.768;2.722;2023-02-04T08:17:03;102519.78;;;3.65;94.01
54248;BME280;40161;39.768;2.722;2023-02-04T08:19:30;102547.16;;;3.78;93.37
54248;BME280;40161;39.768;2.722;2023-02-04T08:21:55;102537.47;;;3.47;92.92
54248;BME280;40161;39.768;2.722;2023-02-04T08:24:22;102542.63;;;3.48;93.65
54248;BME280;40161;39.768;2.722;2023-02-04T08:26:47;102542.28;;;3.86;93.29
54248;BME280;40161;39.768;2.722;2023-02-04T08:29:13;102530.06;;;3.78;91.86
54248;BME280;40161;39.768;2.722;2023-02-04T08:31:39;102528.50;;;3.56;91.78
54248;BME280;40161;39.768;2.722;2023-02-04T08:34:06;102544.25;;;3.54;93.64
54248;BME280;40161;39.768;2.722;2023-02-04T08:36:33;102540.72;;;3.54;93.08
54248;BME280;40161;39.768;2.722;2023-02-04T08:39:02;102535.28;;;3.44;94.25
54248;BME280;40161;39.768;2.722;2023-02-04T08:41:28;102523.09;;;3.36;95.67
54248;BME280;40161;39.768;2.722;2023-02-04T08:43:54;102536.09;;;3.60;95.53
54248;BME280;40161;39.768;2.722;2023-02-04T08:46:19;102500.00;;;3.59;94.92
54248;BME280;40161;39.768;2.722;2023-02-04T08:48:45;102512.50;;;3.45;95.94
54248;BME280;40161;39.768;2.722;2023-02-04T08:51:10;102500.81;;;3.49;96.39
54248;BME280;40161;39.768;2.722;2023-02-04T08:53:36;102473.47;;;3.30;96.86
54248;BME280;40161;39.768;2.722;2023-02-04T08:56:02;102531.75;;;3.69;95.43
54248;BME280;40161;39.768;2.722;2023-02-04T08:58:27;102520.34;;;3.56;95.88
54248;BME280;40161;39.768;2.722;2023-02-04T09:00:53;102534.19;;;3.65;96.21
54248;BME280;40161;39.768;2.722;2023-02-04T09:03:19;102517.91;;;3.60;95.91
54248;BME280;40161;39.768;2.722;2023-02-04T09:05:46;102494.28;;;3.61;96.94
54248;BME280;40161;39.768;2.722;2023-02-04T09:08:12;102526.19;;;4.04;96.29
54248;BME280;40161;39.768;2.722;2023-02-04T09:10:37;102528.34;;;4.02;95.61
54248;BME280;40161;39.768;2.722;2023-02-04T09:13:03;102503.09;;;4.02;95.84
54248;BME280;40161;39.768;2.722;2023-02-04T09:15:29;102539.66;;;4.35;95.99
54248;BME280;40161;39.768;2.722;2023-02-04T09:17:55;102514.56;;;4.48;95.97
54248;BME280;40161;39.768;2.722;2023-02-04T09:20:29;102545.94;;;4.75;96.62
54248;BME280;40161;39.768;2.722;2023-02-04T09:22:56;102526.88;;;4.80;96.32
54248;BME280;40161;39.768;2.722;2023-02-04T09:25:21;102534.56;;;5.02;97.27
54248;BME280;40161;39.768;2.722;2023-02-04T09:27:47;102525.81;;;5.10;96.80
54248;BME280;40161;39.768;2.722;2023-02-04T09:30:14;102527.69;;;5.15;96.24
54248;BME280;40161;39.768;2.722;2023-02-04T09:32:39;102539.97;;;5.41;96.97
54248;BME280;40161;39.768;2.722;2023-02-04T10:21:21;102518.56;;;8.58;88.92
54248;BME280;40161;39.768;2.722;2023-02-04T10:23:54;102499.47;;;8.67;87.67
54248;BME280;40161;39.768;2.722;2023-02-04T10:26:21;102503.22;;;8.93;87.05
54248;BME280;40161;39.768;2.722;2023-02-04T10:28:47;102462.59;;;8.87;86.17
54248;BME280;40161;39.768;2.722;2023-02-04T10:34:20;102496.88;;;9.38;80.82
54248;BME280;40161;39.768;2.722;2023-02-04T10:36:48;102489.47;;;9.38;79.37
54248;BME280;40161;39.768;2.722;2023-02-04T10:39:25;102494.91;;;9.61;78.15
54248;BME280;40161;39.768;2.722;2023-02-04T10:41:56;102494.00;;;9.74;77.76
54248;BME280;40161;39.768;2.722;2023-02-04T10:44:29;102462.81;;;9.70;76.57
54248;BME280;40161;39.768;2.722;2023-02-04T10:46:59;102469.31;;;9.83;76.41
54248;BME280;40161;39.768;2.722;2023-02-04T10:49:24;102504.94;;;10.22;75.24
54248;BME280;40161;39.768;2.722;2023-02-04T10:51:51;102500.91;;;10.29;75.25
54248;BME280;40161;39.768;2.722;2023-02-04T10:54:19;102495.47;;;10.46;74.20
54248;BME280;40161;39.768;2.722;2023-02-04T11:00:02;102472.34;;;10.56;69.31
54248;BME280;40161;39.768;2.722;2023-02-04T11:02:40;102490.75;;;10.81;68.76
54248;BME280;40161;39.768;2.722;2023-02-04T11:05:18;102479.28;;;10.88;67.01
54248;BME280;40161;39.768;2.722;2023-02-04T11:07:46;102476.34;;;11.02;65.66
54248;BME280;40161;39.768;2.722;2023-02-04T11:10:14;102488.63;;;11.04;64.44
54248;BME280;40161;39.768;2.722;2023-02-04T11:12:43;102465.66;;;11.09;63.74
54248;BME280;40161;39.768;2.722;2023-02-04T11:15:39;102474.47;;;11.32;63.39
54248;BME280;40161;39.768;2.722;2023-02-04T11:18:11;102448.78;;;11.36;61.95
54248;BME280;40161;39.768;2.722;2023-02-04T11:20:38;102476.78;;;11.68;61.00
54248;BME280;40161;39.768;2.722;2023-02-04T11:25:39;102445.78;;;11.88;60.22
54248;BME280;40161;39.768;2.722;2023-02-04T11:28:23;102429.94;;;11.85;60.04
54248;BME280;40161;39.768;2.722;2023-02-04T11:31:01;102449.44;;;12.22;59.91
54248;BME280;40161;39.768;2.722;2023-02-04T11:33:38;102451.31;;;12.30;59.57
54248;BME280;40161;39.768;2.722;2023-02-04T11:36:09;102421.53;;;12.11;60.70
54248;BME280;40161;39.768;2.722;2023-02-04T11:38:36;102404.88;;;12.08;60.71
54248;BME280;40161;39.768;2.722;2023-02-04T11:41:03;102431.78;;;12.23;59.84
54248;BME280;40161;39.768;2.722;2023-02-04T11:43:34;102428.81;;;12.28;59.59
54248;BME280;40161;39.768;2.722;2023-02-04T11:46:19;102428.13;;;12.73;58.25
54248;BME280;40161;39.768;2.722;2023-02-04T11:48:45;102424.53;;;12.73;58.55
54248;BME280;40161;39.768;2.722;2023-02-04T11:51:16;102377.84;;;12.43;57.11
54248;BME280;40161;39.768;2.722;2023-02-04T11:53:54;102419.41;;;12.83;54.39
54248;BME280;40161;39.768;2.722;2023-02-04T11:56:21;102417.66;;;12.79;53.86
54248;BME280;40161;39.768;2.722;2023-02-04T11:58:55;102414.09;;;12.78;53.19
54248;BME280;40161;39.768;2.722;2023-02-04T12:01:28;102402.16;;;12.74;52.15
54248;BME280;40161;39.768;2.722;2023-02-04T12:03:59;102345.75;;;12.47;52.34
54248;BME280;40161;39.768;2.722;2023-02-04T12:06:31;102403.00;;;12.87;51.92
54248;BME280;40161;39.768;2.722;2023-02-04T12:09:28;102408.19;;;13.01;53.51
54248;BME280;40161;39.768;2.722;2023-02-04T12:12:02;102398.44;;;13.03;53.39
54248;BME280;40161;39.768;2.722;2023-02-04T12:14:33;102383.72;;;12.99;53.79
54248;BME280;40161;39.768;2.722;2023-02-04T12:17:00;102388.69;;;13.06;52.12
54248;BME280;40161;39.768;2.722;2023-02-04T12:19:26;102356.06;;;12.96;51.25
54248;BME280;40161;39.768;2.722;2023-02-04T12:21:52;102370.53;;;13.05;50.38
54248;BME280;40161;39.768;2.722;2023-02-04T12:24:19;102341.25;;;12.88;50.38
54248;BME280;40161;39.768;2.722;2023-02-04T12:26:44;102369.31;;;13.27;49.21
54248;BME280;40161;39.768;2.722;2023-02-04T12:29:10;102354.47;;;13.32;47.49
54248;BME280;40161;39.768;2.722;2023-02-04T12:31:35;102359.78;;;13.37;47.55
54248;BME280;40161;39.768;2.722;2023-02-04T12:34:01;102307.25;;;13.09;47.29
54248;BME280;40161;39.768;2.722;2023-02-04T12:36:27;102355.06;;;13.37;48.44
54248;BME280;40161;39.768;2.722;2023-02-04T12:38:54;102348.53;;;13.29;48.06
54248;BME280;40161;39.768;2.722;2023-02-04T12:41:20;102339.09;;;13.30;48.33
54248;BME280;40161;39.768;2.722;2023-02-04T12:43:45;102350.47;;;13.41;49.09
54248;BME280;40161;39.768;2.722;2023-02-04T12:46:15;102340.22;;;13.42;47.23
54248;BME280;40161;39.768;2.722;2023-02-04T12:48:40;102298.44;;;13.27;50.10
54248;BME280;40161;39.768;2.722;2023-02-04T12:51:06;102340.91;;;13.63;56.12
54248;BME280;40161;39.768;2.722;2023-02-04T12:53:32;102299.91;;;13.49;60.37
54248;BME280;40161;39.768;2.722;2023-02-04T12:55:58;102310.47;;;13.47;61.67
54248;BME280;40161;39.768;2.722;2023-02-04T12:58:23;102312.53;;;13.50;62.55
54248;BME280;40161;39.768;2.722;2023-02-04T13:00:49;102311.94;;;13.57;63.58
54248;BME280;40161;39.768;2.722;2023-02-04T13:03:14;102334.31;;;13.80;66.02
54248;BME280;40161;39.768;2.722;2023-02-04T13:05:40;102330.19;;;13.74;65.79
54248;BME280;40161;39.768;2.722;2023-02-04T13:08:06;102335.81;;;13.77;68.43
54248;BME280;40161;39.768;2.722;2023-02-04T13:10:32;102312.63;;;13.66;66.33
54248;BME280;40161;39.768;2.722;2023-02-04T13:12:57;102334.31;;;13.80;66.36
54248;BME280;40161;39.768;2.722;2023-02-04T13:15:24;102327.19;;;13.79;68.03
54248;BME280;40161;39.768;2.722;2023-02-04T13:17:50;102319.06;;;13.70;69.50
54248;BME280;40161;39.768;2.722;2023-02-04T13:20:15;102330.03;;;13.83;69.65
54248;BME280;40161;39.768;2.722;2023-02-04T13:22:41;102285.06;;;13.54;69.97
54248;BME280;40161;39.768;2.722;2023-02-04T13:25:07;102329.81;;;13.88;72.23
54248;BME280;40161;39.768;2.722;2023-02-04T13:27:34;102324.53;;;13.83;73.00
54248;BME280;40161;39.768;2.722;2023-02-04T13:30:00;102332.09;;;13.86;72.89
54248;BME280;40161;39.768;2.722;2023-02-04T13:32:25;102313.97;;;13.72;72.58
54248;BME280;40161;39.768;2.722;2023-02-04T13:34:51;102327.19;;;13.79;71.63
54248;BME280;40161;39.768;2.722;2023-02-04T13:37:16;102324.78;;;13.77;71.38
54248;BME280;40161;39.768;2.722;2023-02-04T13:39:42;102325.69;;;13.82;72.25
54248;BME280;40161;39.768;2.722;2023-02-04T13:42:08;102325.31;;;13.83;72.87
54248;BME280;40161;39.768;2.722;2023-02-04T13:44:34;102325.56;;;13.78;73.08
54248;BME280;40161;39.768;2.722;2023-02-04T13:47:00;102317.00;;;13.67;71.74
54248;BME280;40161;39.768;2.722;2023-02-04T13:49:26;102312.63;;;13.66;72.11
54248;BME280;40161;39.768;2.722;2023-02-04T13:51:52;102303.53;;;13.66;72.32
54248;BME280;40161;39.768;2.722;2023-02-04T13:54:18;102264.19;;;13.41;72.40